Time;durP1;ratioP1;P1;durP2;ratioP2;P2;SDS_P1;SDS_P2;PMS_P1;PMS_P2;Temp;Humidity;BMP_temperature;BMP_pressure;BME280_temperature;BME280_humidity;BME280_pressure;Samples;Min_cycle;Max_cycle;Signal;HPM_P1;HPM_P2
2021/01/10 00:00:07;;;;;;;22.77;12.80;;;;;;;0.92;74.68;99743.18;1755757;79;27281;-61
2021/01/10 00:02:34;;;;;;;25.00;13.90;;;;;;;0.84;74.66;99751.66;1721524;80;21203;-61
2021/01/10 00:05:03;;;;;;;20.70;12.23;;;;;;;0.85;74.68;99750.77;1729266;80;22635;-59
2021/01/10 00:07:30;;;;;;;23.13;13.73;;;;;;;0.85;74.69;99752.94;1730873;80;21044;-60
2021/01/10 00:09:57;;;;;;;19.53;13.13;;;;;;;0.86;74.69;99755.14;1724563;80;21107;-60
2021/01/10 00:12:26;;;;;;;21.13;12.87;;;;;;;0.87;74.61;99752.92;1724866;80;21191;-59
2021/01/10 00:14:54;;;;;;;22.17;13.33;;;;;;;0.86;74.63;99752.05;1722083;80;21537;-61
2021/01/10 00:17:22;;;;;;;19.20;12.20;;;;;;;0.88;74.59;99757.34;1728243;80;21815;-61
2021/01/10 00:19:49;;;;;;;27.27;14.63;;;;;;;0.87;74.58;99760.88;1728547;80;21178;-61
2021/01/10 00:22:19;;;;;;;21.47;13.17;;;;;;;0.87;74.52;99762.20;1725976;80;21526;-60
2021/01/10 00:24:46;;;;;;;22.27;14.10;;;;;;;0.85;74.54;99756.91;1726647;80;21123;-61
2021/01/10 00:27:15;;;;;;;23.50;13.93;;;;;;;0.85;74.50;99765.34;1727898;80;21618;-60
2021/01/10 00:29:47;;;;;;;23.10;12.97;;;;;;;0.86;74.49;99763.09;1723489;80;22124;-61
2021/01/10 00:32:16;;;;;;;23.60;13.33;;;;;;;0.85;74.49;99765.34;1724421;80;21147;-61
2021/01/10 00:34:43;;;;;;;18.17;10.83;;;;;;;0.85;74.51;99763.53;1726227;80;21439;-61
2021/01/10 00:37:20;;;;;;;22.47;12.70;;;;;;;0.86;74.49;99764.41;1725425;80;21637;-61
2021/01/10 00:39:48;;;;;;;27.57;14.00;;;;;;;0.88;74.46;99766.61;1724768;80;21465;-60
2021/01/10 00:42:16;;;;;;;17.47;11.03;;;;;;;0.89;74.44;99769.70;1721680;80;21833;-60
2021/01/10 00:44:48;;;;;;;21.00;11.67;;;;;;;0.91;74.42;99770.13;1707143;82;21529;-60
2021/01/10 00:47:19;;;;;;;19.27;11.57;;;;;;;0.95;74.30;99767.86;1708383;81;21601;-62
2021/01/10 00:49:47;;;;;;;20.80;11.50;;;;;;;0.94;74.30;99771.41;1708360;81;21605;-60
2021/01/10 00:52:15;;;;;;;20.43;11.80;;;;;;;0.93;74.22;99768.80;1708773;82;21183;-60
2021/01/10 00:54:43;;;;;;;19.23;11.97;;;;;;;0.91;74.19;99766.59;1707229;82;21672;-61
2021/01/10 00:57:10;;;;;;;20.73;12.27;;;;;;;0.92;74.20;99771.01;1703232;81;21210;-61
2021/01/10 00:59:39;;;;;;;20.83;12.87;;;;;;;0.89;74.17;99763.08;1707429;82;21723;-61
2021/01/10 01:02:06;;;;;;;17.47;12.67;;;;;;;0.87;74.21;99772.36;1681619;82;21703;-61
2021/01/10 01:04:34;;;;;;;25.23;14.80;;;;;;;0.86;74.27;99773.69;1678119;82;21172;-60
2021/01/10 01:07:02;;;;;;;21.80;13.57;;;;;;;0.83;74.30;99769.77;1707284;82;21731;-61
2021/01/10 01:09:30;;;;;;;22.40;13.30;;;;;;;0.84;74.33;99771.52;1706971;82;21569;-60
2021/01/10 01:11:59;;;;;;;21.17;12.90;;;;;;;0.84;74.39;99768.88;1702642;82;21199;-60
2021/01/10 01:14:26;;;;;;;23.27;14.40;;;;;;;0.84;74.38;99774.17;1709826;82;21163;-61
2021/01/10 01:16:54;;;;;;;22.67;13.20;;;;;;;0.83;74.44;99769.31;1706822;82;21445;-61
2021/01/10 01:19:21;;;;;;;25.93;13.50;;;;;;;0.86;74.48;99765.73;1704957;82;22482;-61
2021/01/10 01:21:52;;;;;;;19.70;12.17;;;;;;;0.87;74.49;99763.52;1705808;82;21139;-60
2021/01/10 01:24:21;;;;;;;18.13;12.17;;;;;;;0.86;74.49;99765.30;1710904;82;21155;-61
2021/01/10 01:26:48;;;;;;;23.90;13.07;;;;;;;0.89;74.50;99764.40;1706885;82;21120;-61
2021/01/10 01:29:16;;;;;;;22.63;13.00;;;;;;;0.93;74.52;99762.17;1705862;82;21219;-61
2021/01/10 01:31:43;;;;;;;21.43;12.40;;;;;;;0.96;74.52;99766.09;1706635;82;21477;-61
2021/01/10 01:34:10;;;;;;;24.53;13.80;;;;;;;0.95;74.52;99769.63;1707159;82;21123;-60
2021/01/10 01:36:38;;;;;;;22.80;14.17;;;;;;;0.95;74.50;99769.19;1707906;82;21195;-61
2021/01/10 01:39:06;;;;;;;29.93;15.17;;;;;;;0.95;74.56;99766.53;1707610;82;21183;-60
2021/01/10 01:41:39;;;;;;;27.67;14.60;;;;;;;0.97;74.55;99767.86;1705257;82;21230;-61
2021/01/10 01:44:06;;;;;;;28.03;16.97;;;;;;;0.96;74.55;99769.62;1704764;82;22895;-61
2021/01/10 01:46:36;;;;;;;23.23;14.73;;;;;;;0.96;74.62;99764.77;1706563;82;21211;-60
2021/01/10 01:49:08;;;;;;;29.30;16.87;;;;;;;0.96;74.61;99769.62;1709467;82;21131;-61
2021/01/10 01:51:35;;;;;;;26.97;15.27;;;;;;;0.95;74.66;99769.63;1707798;82;21147;-61
2021/01/10 01:54:04;;;;;;;29.37;15.67;;;;;;;0.94;74.74;99759.92;1708561;82;21103;-61
2021/01/10 01:56:31;;;;;;;31.43;15.80;;;;;;;0.92;74.79;99767.91;1706854;82;22026;-61
2021/01/10 01:59:07;;;;;;;25.60;15.60;;;;;;;0.93;74.83;99772.77;1697702;82;21141;-61
2021/01/10 02:01:36;;;;;;;30.93;15.43;;;;;;;0.92;74.89;99772.33;1700018;82;21137;-60
2021/01/10 02:04:21;;;;;;;27.03;15.70;;;;;;;0.93;74.91;99782.05;1617470;85;21162;-61
2021/01/10 02:07:26;;;;;;;26.57;15.57;;;;;;;0.92;74.95;99773.66;1694547;82;21127;-60
2021/01/10 02:10:03;;;;;;;26.80;15.33;;;;;;;0.93;75.01;99771.00;1695839;82;21590;-61
2021/01/10 02:12:30;;;;;;;24.57;16.40;;;;;;;0.96;75.04;99775.37;1691786;82;21132;-61
2021/01/10 02:15:00;;;;;;;24.23;15.27;;;;;;;0.97;75.06;99773.16;1693197;82;21658;-60
2021/01/10 02:17:28;;;;;;;26.97;16.83;;;;;;;1.00;75.07;99781.09;1695115;82;21115;-61
2021/01/10 02:20:02;;;;;;;26.70;16.83;;;;;;;1.01;74.99;99766.95;1692017;82;21650;-61
2021/01/10 02:22:32;;;;;;;20.92;13.08;;;;;;;1.01;74.99;99773.58;1693689;82;21347;-61
2021/01/10 02:25:00;;;;;;;24.47;15.40;;;;;;;1.00;74.98;99774.02;1692402;82;21543;-61
2021/01/10 02:27:27;;;;;;;26.37;15.60;;;;;;;0.97;74.99;99772.71;1691682;82;21513;-61
2021/01/10 02:29:54;;;;;;;23.77;15.73;;;;;;;0.97;75.07;99778.02;1693842;82;21135;-61
2021/01/10 02:32:21;;;;;;;26.03;15.33;;;;;;;0.94;75.05;99771.84;1691897;82;21676;-60
2021/01/10 02:34:49;;;;;;;28.90;17.67;;;;;;;0.92;75.14;99775.86;1693876;82;21219;-60
2021/01/10 02:38:02;;;;;;;29.77;17.00;;;;;;;0.90;75.19;99776.76;1691289;82;21573;-61
2021/01/10 02:40:40;;;;;;;24.37;14.80;;;;;;;0.89;75.21;99777.65;1691666;82;21986;-60
2021/01/10 02:43:21;;;;;;;24.80;14.23;;;;;;;0.86;75.26;99771.04;1690129;82;21218;-61
2021/01/10 02:45:50;;;;;;;29.43;15.97;;;;;;;0.89;75.35;99780.30;1696367;82;21451;-60
2021/01/10 02:48:18;;;;;;;27.50;15.40;;;;;;;0.90;75.37;99780.30;1693634;82;21863;-61
2021/01/10 02:50:45;;;;;;;27.37;16.27;;;;;;;0.91;75.37;99781.17;1671056;82;21231;-59
2021/01/10 02:53:12;;;;;;;29.83;17.23;;;;;;;0.92;75.39;99771.01;1692389;82;21231;-61
2021/01/10 02:55:41;;;;;;;25.57;15.20;;;;;;;0.92;75.35;99777.19;1690587;82;21226;-57
2021/01/10 02:58:19;;;;;;;31.23;17.73;;;;;;;0.91;75.36;99775.88;1693515;82;21791;-61
2021/01/10 03:00:47;;;;;;;26.47;16.67;;;;;;;0.90;75.39;99774.11;1689841;82;21488;-58
2021/01/10 03:03:15;;;;;;;30.10;17.57;;;;;;;0.87;75.42;99780.75;1691751;82;21601;-60
2021/01/10 03:05:42;;;;;;;29.70;16.47;;;;;;;0.85;75.43;99778.11;1694515;82;21491;-60
2021/01/10 03:08:10;;;;;;;28.30;16.03;;;;;;;0.85;75.50;99782.08;1690314;82;21220;-58
2021/01/10 03:10:38;;;;;;;30.00;16.27;;;;;;;0.86;75.49;99778.55;1693155;82;21228;-58
2021/01/10 03:13:06;;;;;;;27.57;16.50;;;;;;;0.88;75.53;99774.56;1689989;82;21366;-60
2021/01/10 03:15:33;;;;;;;28.27;16.93;;;;;;;0.88;75.46;99782.07;1691038;82;21422;-60
2021/01/10 03:18:10;;;;;;;26.13;15.87;;;;;;;0.87;75.48;99779.42;1693945;82;21125;-60
2021/01/10 03:20:38;;;;;;;23.57;15.03;;;;;;;0.86;75.51;99778.55;1684279;82;22293;-58
2021/01/10 03:23:05;;;;;;;26.67;16.27;;;;;;;0.87;75.54;99780.75;1698118;82;21089;-58
2021/01/10 03:25:33;;;;;;;29.07;16.87;;;;;;;0.86;75.51;99785.61;1693614;81;21397;-58
2021/01/10 03:28:02;;;;;;;29.60;16.00;;;;;;;0.87;75.56;99776.78;1692090;82;21163;-58
2021/01/10 03:30:29;;;;;;;25.83;15.93;;;;;;;0.90;75.52;99780.73;1694135;82;21167;-59
2021/01/10 03:32:57;;;;;;;29.37;15.70;;;;;;;0.90;75.52;99778.97;1696106;82;21175;-59
2021/01/10 03:35:24;;;;;;;32.30;17.47;;;;;;;0.92;75.52;99773.66;1691840;82;21207;-58
2021/01/10 03:37:52;;;;;;;29.93;17.77;;;;;;;0.93;75.48;99780.27;1692394;82;21395;-59
2021/01/10 03:40:19;;;;;;;29.03;17.33;;;;;;;0.93;75.45;99776.30;1688358;82;21211;-59
2021/01/10 03:42:46;;;;;;;27.50;17.83;;;;;;;0.93;75.45;99772.77;1627032;85;21704;-59
2021/01/10 03:45:15;;;;;;;28.40;16.67;;;;;;;0.93;75.44;99781.60;1630459;85;21220;-58
2021/01/10 03:47:42;;;;;;;27.13;15.93;;;;;;;0.93;75.44;99776.30;1658397;84;21219;-58
2021/01/10 03:50:10;;;;;;;26.63;16.10;;;;;;;0.94;75.43;99774.50;1655662;84;21876;-59
2021/01/10 03:52:38;;;;;;;26.93;16.13;;;;;;;0.95;75.40;99776.26;1652478;84;21264;-57
2021/01/10 03:55:07;;;;;;;30.67;16.50;;;;;;;0.95;75.41;99774.48;1653023;84;21630;-58
2021/01/10 03:57:38;;;;;;;28.40;16.77;;;;;;;0.94;75.41;99782.45;1654721;84;21255;-58
2021/01/10 04:00:10;;;;;;;25.10;15.90;;;;;;;0.93;75.39;99782.92;1653049;84;22498;-58
2021/01/10 04:02:39;;;;;;;28.90;17.13;;;;;;;0.93;75.38;99786.90;1656316;84;21618;-58
2021/01/10 04:05:07;;;;;;;32.20;18.60;;;;;;;0.93;75.37;99790.00;1658325;84;21147;-59
2021/01/10 04:07:34;;;;;;;32.60;17.80;;;;;;;0.93;75.41;99782.92;1653684;84;21207;-58
2021/01/10 04:10:04;;;;;;;27.67;15.57;;;;;;;0.96;75.41;99786.85;1656242;84;21275;-59
2021/01/10 04:12:32;;;;;;;27.27;16.53;;;;;;;0.97;75.31;99785.97;1653557;84;21203;-59
2021/01/10 04:14:59;;;;;;;29.33;17.90;;;;;;;0.97;75.31;99782.44;1652609;84;21238;-60
2021/01/10 04:17:27;;;;;;;27.50;16.47;;;;;;;0.98;75.30;99791.70;1653314;84;21647;-59
2021/01/10 04:19:54;;;;;;;33.47;18.40;;;;;;;0.96;75.30;99788.63;1654318;84;21266;-59
2021/01/10 04:22:22;;;;;;;26.03;16.27;;;;;;;0.98;75.27;99793.47;1657240;84;21233;-58
2021/01/10 04:24:51;;;;;;;24.30;15.63;;;;;;;0.98;75.21;99796.13;1656998;84;21179;-57
2021/01/10 04:27:19;;;;;;;29.50;16.33;;;;;;;0.97;75.17;99793.91;1657203;84;22107;-59
2021/01/10 04:29:48;;;;;;;26.87;16.33;;;;;;;0.97;75.19;99799.66;1655960;84;21246;-62
2021/01/10 04:32:16;;;;;;;24.57;14.80;;;;;;;0.95;75.17;99802.31;1655952;84;21191;-58
2021/01/10 04:34:44;;;;;;;25.87;15.03;;;;;;;0.94;75.21;99809.83;1653147;84;21179;-60
2021/01/10 04:37:12;;;;;;;22.73;14.93;;;;;;;0.92;75.19;99806.34;1654254;84;21153;-58
2021/01/10 04:39:39;;;;;;;25.73;16.27;;;;;;;0.90;75.19;99814.74;1651352;84;21706;-59
2021/01/10 04:42:06;;;;;;;28.17;14.43;;;;;;;0.89;75.23;99812.10;1652833;84;21649;-58
2021/01/10 04:44:34;;;;;;;21.60;14.73;;;;;;;0.87;75.29;99816.53;1655840;84;21416;-58
2021/01/10 04:47:02;;;;;;;26.93;16.23;;;;;;;0.87;75.35;99816.53;1656074;84;21140;-60
2021/01/10 04:49:30;;;;;;;30.07;16.17;;;;;;;0.88;75.40;99824.91;1659071;84;21144;-58
2021/01/10 04:51:58;;;;;;;32.17;16.17;;;;;;;0.88;75.37;99821.82;1651783;84;21183;-59
2021/01/10 04:54:25;;;;;;;22.47;13.70;;;;;;;0.91;75.39;99831.52;1692459;82;21009;-57
2021/01/10 04:56:52;;;;;;;25.37;14.40;;;;;;;0.95;75.43;99830.59;1694800;82;21123;-60
2021/01/10 04:59:19;;;;;;;25.63;15.73;;;;;;;0.99;75.37;99832.34;1704780;82;21151;-59
2021/01/10 05:01:50;;;;;;;30.00;17.30;;;;;;;1.01;75.31;99839.39;1707309;82;21124;-58
2021/01/10 05:04:17;;;;;;;26.27;16.63;;;;;;;1.01;75.26;99839.39;1706637;82;21000;-58
2021/01/10 05:06:45;;;;;;;29.73;16.60;;;;;;;1.01;75.24;99840.72;1708605;82;21175;-58
2021/01/10 05:09:12;;;;;;;27.93;16.47;;;;;;;1.02;75.28;99841.13;1706623;82;21095;-59
2021/01/10 05:11:41;;;;;;;24.40;15.17;;;;;;;1.01;75.24;99848.67;1704185;82;21575;-59
2021/01/10 05:14:08;;;;;;;27.73;15.30;;;;;;;1.01;75.24;99847.80;1703707;82;21538;-57
2021/01/10 05:16:38;;;;;;;30.13;16.33;;;;;;;1.01;75.25;99854.42;1703764;82;22023;-57
2021/01/10 05:19:05;;;;;;;26.77;14.30;;;;;;;1.01;75.23;99850.00;1704777;82;21132;-57
2021/01/10 05:21:32;;;;;;;24.63;14.63;;;;;;;1.04;75.25;99852.60;1707190;82;21649;-58
2021/01/10 05:24:00;;;;;;;23.80;14.17;;;;;;;1.08;75.23;99857.45;1708798;82;21115;-58
2021/01/10 05:26:36;;;;;;;25.03;14.23;;;;;;;1.07;75.19;99857.01;1706649;82;21574;-58
2021/01/10 05:29:08;;;;;;;24.57;16.17;;;;;;;1.07;75.18;99858.34;1708818;82;21447;-58
2021/01/10 05:31:40;;;;;;;26.87;15.80;;;;;;;1.07;75.13;99860.98;1706805;82;21132;-57
2021/01/10 05:34:16;;;;;;;22.53;14.37;;;;;;;1.05;75.12;99859.67;1709152;82;21180;-57
2021/01/10 05:36:43;;;;;;;25.40;15.30;;;;;;;1.02;75.18;99861.48;1709299;82;21542;-58
2021/01/10 05:39:25;;;;;;;25.00;14.67;;;;;;;1.00;75.22;99865.91;1707442;82;21122;-57
2021/01/10 05:41:59;;;;;;;25.07;15.13;;;;;;;0.99;75.24;99866.80;1704742;82;21227;-59
2021/01/10 05:44:28;;;;;;;26.40;16.32;;;;;;;0.98;75.30;99876.96;1702379;82;21812;-58
2021/01/10 05:47:05;;;;;;;28.73;16.20;;;;;;;0.97;75.35;99872.10;1705042;82;21637;-58
2021/01/10 05:49:32;;;;;;;27.13;15.40;;;;;;;0.99;75.37;99871.66;1709760;82;21637;-59
2021/01/10 05:52:09;;;;;;;27.20;15.53;;;;;;;0.98;75.35;99880.49;1706178;82;21135;-58
2021/01/10 05:54:45;;;;;;;25.90;15.47;;;;;;;0.97;75.34;99875.20;1705811;82;21154;-58
2021/01/10 05:57:18;;;;;;;26.65;15.50;;;;;;;0.96;75.39;99879.62;1707894;82;21175;-57
2021/01/10 05:59:50;;;;;;;26.13;16.07;;;;;;;0.98;75.43;99883.59;1697321;82;22227;-59
2021/01/10 06:02:36;;;;;;;26.53;15.07;;;;;;;0.99;75.44;99886.67;1691764;82;21275;-58
2021/01/10 06:05:17;;;;;;;30.70;16.03;;;;;;;1.00;75.42;99885.34;1691702;82;21096;-58
2021/01/10 06:07:46;;;;;;;28.97;15.87;;;;;;;1.00;75.40;99888.00;1690768;82;21219;-59
2021/01/10 06:10:28;;;;;;;28.93;15.70;;;;;;;1.03;75.39;99884.42;1691170;82;21251;-59
2021/01/10 06:13:04;;;;;;;25.67;15.67;;;;;;;1.06;75.37;99891.91;1691683;82;21159;-59
2021/01/10 06:15:32;;;;;;;26.60;15.80;;;;;;;1.06;75.36;99898.98;1696803;82;21139;-58
2021/01/10 06:18:01;;;;;;;30.67;17.43;;;;;;;1.06;75.35;99901.20;1657014;84;21187;-59
2021/01/10 06:20:30;;;;;;;29.43;17.47;;;;;;;1.05;75.38;99902.08;1651996;84;22348;-58
2021/01/10 06:23:01;;;;;;;30.10;16.70;;;;;;;1.07;75.42;99901.63;1655284;84;21237;-59
2021/01/10 06:25:33;;;;;;;26.67;15.80;;;;;;;1.09;75.38;99901.63;1655847;84;21151;-58
2021/01/10 06:28:13;;;;;;;29.23;15.97;;;;;;;1.10;75.39;99899.41;1649193;84;21219;-58
2021/01/10 06:30:50;;;;;;;29.37;16.23;;;;;;;1.10;75.40;99904.72;1655530;84;21543;-58
2021/01/10 06:36:08;;;;;;;27.83;16.47;;;;;;;1.12;75.40;99905.11;1867781;75;26578;-57
2021/01/10 06:38:37;;;;;;;25.27;15.53;;;;;;;1.08;75.38;99912.67;1836125;76;21182;-58
2021/01/10 06:41:37;;;;;;;24.30;14.20;;;;;;;1.08;75.46;99917.98;1836146;76;21359;-58
2021/01/10 06:44:05;;;;;;;28.03;14.00;;;;;;;1.09;75.48;99921.51;1830923;76;20954;-58
2021/01/10 06:46:33;;;;;;;17.97;11.47;;;;;;;1.14;75.47;99927.64;1831081;76;20988;-58
2021/01/10 06:49:04;;;;;;;27.87;15.60;;;;;;;1.18;75.52;99928.06;1840250;76;21124;-58
2021/01/10 06:51:32;;;;;;;26.57;16.70;;;;;;;1.22;75.49;99928.91;1831443;76;21060;-58
2021/01/10 06:54:06;;;;;;;26.40;14.97;;;;;;;1.26;75.42;99934.19;1838019;76;21255;-58
2021/01/10 06:56:33;;;;;;;26.70;15.18;;;;;;;1.26;75.32;99936.84;1797007;76;21605;-58
2021/01/10 06:59:12;;;;;;;27.80;16.73;;;;;;;1.22;75.33;99949.67;1833903;76;21440;-58
2021/01/10 07:01:52;;;;;;;25.70;15.33;;;;;;;1.20;75.39;99944.82;1835449;76;21164;-59
2021/01/10 07:04:27;;;;;;;27.10;15.43;;;;;;;1.18;75.46;99946.63;1824534;76;21195;-59
2021/01/10 07:06:55;;;;;;;23.13;14.10;;;;;;;1.17;75.52;99950.17;1833621;76;21745;-60
2021/01/10 07:09:22;;;;;;;24.53;14.23;;;;;;;1.16;75.56;99952.38;1830818;76;21654;-59
2021/01/10 07:11:50;;;;;;;24.00;13.40;;;;;;;1.17;75.61;99952.82;1830869;76;21175;-58
2021/01/10 07:14:25;;;;;;;21.10;13.43;;;;;;;1.20;75.58;99957.20;1827422;76;21505;-59
2021/01/10 07:17:09;;;;;;;23.22;13.48;;;;;;;1.20;75.64;99952.78;1825355;76;27450;-59
2021/01/10 07:20:01;;;;;;;23.73;14.90;;;;;;;1.21;75.67;99957.64;1828027;76;21639;-59
2021/01/10 07:22:31;;;;;;;24.37;15.10;;;;;;;1.21;75.67;99960.29;1779178;79;21169;-61
2021/01/10 07:25:21;;;;;;;23.60;14.47;;;;;;;1.24;75.72;99961.60;1724429;81;21163;-55
2021/01/10 07:27:48;;;;;;;25.10;14.97;;;;;;;1.25;75.68;99967.34;1721017;81;21756;-61
2021/01/10 07:30:24;;;;;;;25.23;15.53;;;;;;;1.26;75.69;99966.45;1723955;81;21270;-64
2021/01/10 07:32:52;;;;;;;26.17;15.23;;;;;;;1.28;75.66;99965.53;1739124;81;21379;-61
2021/01/10 07:35:19;;;;;;;24.30;14.77;;;;;;;1.31;75.60;99968.61;1747359;81;21269;-61
2021/01/10 07:37:46;;;;;;;21.73;13.33;;;;;;;1.30;75.62;99974.80;1723209;81;21423;-63
2021/01/10 07:40:18;;;;;;;23.70;13.37;;;;;;;1.32;75.66;99974.36;1721974;81;21214;-60
2021/01/10 07:42:45;;;;;;;24.67;14.03;;;;;;;1.32;75.66;99972.59;1681787;82;21137;-62
2021/01/10 07:45:22;;;;;;;26.20;14.83;;;;;;;1.34;75.69;99973.91;1653388;83;21241;-61
2021/01/10 07:47:53;;;;;;;25.07;15.13;;;;;;;1.33;75.73;99971.70;1711988;81;21656;-61
2021/01/10 07:50:24;;;;;;;24.43;15.43;;;;;;;1.32;75.75;99979.22;1716200;81;21202;-62
2021/01/10 07:52:53;;;;;;;25.27;14.53;;;;;;;1.28;75.84;99977.46;1719396;81;21128;-63
2021/01/10 07:55:29;;;;;;;27.07;14.60;;;;;;;1.26;75.92;99976.63;1717010;81;21644;-60
2021/01/10 07:58:07;;;;;;;23.77;14.03;;;;;;;1.25;76.03;99980.60;1717857;81;22120;-60
2021/01/10 08:00:38;;;;;;;23.57;14.17;;;;;;;1.23;76.08;99979.28;1714461;81;21157;-64
2021/01/10 08:03:08;;;;;;;28.00;16.03;;;;;;;1.19;76.14;99981.54;1709704;81;21125;-61
2021/01/10 08:05:41;;;;;;;26.20;14.27;;;;;;;1.21;76.22;99978.84;1687652;82;21171;-60
2021/01/10 08:08:16;;;;;;;27.30;14.70;;;;;;;1.24;76.24;99986.34;1719167;81;21123;-63
2021/01/10 08:10:55;;;;;;;26.13;15.50;;;;;;;1.26;76.26;99983.25;1687285;82;21589;-61
2021/01/10 08:13:32;;;;;;;27.60;15.27;;;;;;;1.27;76.25;99986.78;1715408;81;21454;-61
2021/01/10 08:16:13;;;;;;;28.17;17.37;;;;;;;1.27;76.23;99986.78;1691218;82;21125;-61
2021/01/10 08:18:44;;;;;;;27.17;15.87;;;;;;;1.27;76.30;99986.78;1696308;82;21559;-60
2021/01/10 08:21:14;;;;;;;25.43;14.97;;;;;;;1.27;76.29;99986.34;1708348;81;21151;-61
2021/01/10 08:23:43;;;;;;;24.40;15.23;;;;;;;1.28;76.23;99990.72;1703038;82;21454;-61
2021/01/10 08:26:15;;;;;;;27.83;15.07;;;;;;;1.27;76.21;99985.02;1694862;82;21190;-61
2021/01/10 08:28:51;;;;;;;24.50;14.37;;;;;;;1.28;76.17;99989.39;1694594;82;22099;-60
2021/01/10 08:31:26;;;;;;;24.17;15.13;;;;;;;1.30;76.19;99994.25;1693695;82;21146;-62
2021/01/10 08:34:10;;;;;;;22.63;14.30;;;;;;;1.32;76.21;99991.59;1696078;82;21459;-63
2021/01/10 08:36:37;;;;;;;24.37;14.87;;;;;;;1.35;76.24;99992.91;1693593;82;21399;-63
2021/01/10 08:39:08;;;;;;;21.87;13.63;;;;;;;1.37;76.22;99995.08;1691012;82;21191;-61
2021/01/10 08:41:44;;;;;;;23.93;13.53;;;;;;;1.42;76.21;99990.64;1692708;82;21027;-59
2021/01/10 08:44:18;;;;;;;20.53;12.83;;;;;;;1.47;76.21;99986.17;1692345;82;21739;-60
2021/01/10 08:46:50;;;;;;;24.93;13.50;;;;;;;1.53;76.15;99992.30;1700811;81;21163;-62
2021/01/10 08:49:19;;;;;;;24.37;14.30;;;;;;;1.59;76.09;99988.73;1703340;82;22814;-60
2021/01/10 08:51:49;;;;;;;19.77;12.30;;;;;;;1.64;75.98;99993.98;1700507;81;21218;-61
2021/01/10 08:54:23;;;;;;;22.07;14.10;;;;;;;1.66;75.92;99997.52;1699793;81;21223;-61
2021/01/10 08:56:55;;;;;;;25.92;15.40;;;;;;;1.65;75.85;99990.45;1695836;82;21498;-60
2021/01/10 08:59:24;;;;;;;21.57;13.40;;;;;;;1.64;75.72;99990.01;1697437;81;21235;-61
2021/01/10 09:01:51;;;;;;;26.67;14.93;;;;;;;1.61;75.79;99979.00;1687131;81;22702;-61
2021/01/10 09:04:19;;;;;;;22.27;14.50;;;;;;;1.63;75.73;99978.95;1699922;81;21932;-58
2021/01/10 09:07:12;;;;;;;27.10;15.20;;;;;;;1.64;75.75;99981.60;1679706;83;21235;-62
2021/01/10 09:10:02;;;;;;;25.10;14.20;;;;;;;1.67;75.75;99986.02;1700348;81;21272;-58
2021/01/10 09:12:48;;;;;;;25.57;15.83;;;;;;;1.69;75.81;99980.25;1698065;81;21199;-60
2021/01/10 09:15:27;;;;;;;28.37;14.00;;;;;;;1.69;75.74;99975.83;1705042;82;21287;-61
2021/01/10 09:18:01;;;;;;;21.47;13.77;;;;;;;1.70;75.66;99975.38;1702969;81;21150;-61
2021/01/10 09:20:43;;;;;;;24.50;14.27;;;;;;;1.75;75.63;99975.77;1868205;75;26841;-62
2021/01/10 09:23:10;;;;;;;25.85;14.47;;;;;;;1.77;75.55;99977.08;1841044;76;21134;-60
2021/01/10 09:25:38;;;;;;;26.87;15.33;;;;;;;1.82;75.45;99976.58;1840833;76;21388;-63
2021/01/10 09:28:15;;;;;;;24.83;15.93;;;;;;;1.84;75.35;99970.37;1805967;77;21074;-62
2021/01/10 09:30:46;;;;;;;25.50;15.63;;;;;;;1.87;75.18;99973.45;1778388;79;21162;-63
2021/01/10 09:33:14;;;;;;;25.40;15.70;;;;;;;1.88;75.10;99976.06;1770871;79;21048;-62
2021/01/10 09:35:44;;;;;;;28.13;15.93;;;;;;;1.87;75.05;99976.11;1776083;79;21154;-61
2021/01/10 09:38:19;;;;;;;27.23;14.97;;;;;;;1.85;74.93;99976.56;1780064;78;21023;-61
2021/01/10 09:41:08;;;;;;;;;;;;;;;1.82;74.92;99976.13;1809136;78;21142;-59
2021/01/10 09:43:48;;;;;;;27.33;16.17;;;;;;;1.78;74.95;99976.19;1803907;78;20187;-60
2021/01/10 09:46:36;;;;;;;25.67;14.43;;;;;;;1.79;75.07;99977.92;1802638;78;21219;-61
2021/01/10 09:49:19;;;;;;;27.97;15.57;;;;;;;1.79;74.97;99978.80;1795990;78;21184;-58
2021/01/10 09:52:01;;;;;;;25.87;15.70;;;;;;;1.81;75.00;99980.13;1781274;78;21167;-60
2021/01/10 09:54:35;;;;;;;25.50;15.97;;;;;;;1.82;74.96;99982.77;1803887;77;21218;-60
2021/01/10 09:57:16;;;;;;;30.43;17.33;;;;;;;1.83;74.98;99976.57;1800197;78;21182;-59
2021/01/10 09:59:49;;;;;;;28.80;16.33;;;;;;;1.84;74.95;99974.36;1754058;79;21177;-60
2021/01/10 10:02:25;;;;;;;28.23;15.83;;;;;;;1.87;74.82;99973.45;1787176;78;21421;-59
2021/01/10 10:04:55;;;;;;;26.50;15.93;;;;;;;1.81;74.78;99971.72;1775256;79;21530;-60
2021/01/10 10:07:35;;;;;;;31.43;15.53;;;;;;;1.78;74.85;99974.87;1778876;79;21459;-59
2021/01/10 10:10:06;;;;;;;24.67;16.47;;;;;;;1.77;74.90;99967.34;1770359;79;21606;-61
2021/01/10 10:12:33;;;;;;;28.63;16.23;;;;;;;1.83;75.00;99975.69;1799427;77;21207;-62
2021/01/10 10:15:06;;;;;;;25.13;15.10;;;;;;;1.86;74.96;99967.27;1781775;78;21191;-59
2021/01/10 10:17:37;;;;;;;28.27;16.20;;;;;;;1.86;74.90;99965.94;1803777;78;22126;-58
2021/01/10 10:20:07;;;;;;;23.97;15.50;;;;;;;1.87;74.88;99972.13;1797799;78;21223;-61
2021/01/10 10:22:35;;;;;;;27.90;18.00;;;;;;;1.86;74.81;99967.71;1784113;78;21463;-59
2021/01/10 10:25:06;;;;;;;27.93;16.93;;;;;;;1.84;74.83;99965.51;1787536;78;21212;-64
2021/01/10 10:27:33;;;;;;;32.40;18.43;;;;;;;1.81;74.88;99971.72;1772180;80;21187;-60
2021/01/10 10:30:00;;;;;;;26.70;16.30;;;;;;;1.79;74.94;99970.84;1788372;78;21207;-57
2021/01/10 10:32:28;;;;;;;25.73;14.93;;;;;;;1.80;74.96;99967.74;1773436;80;21179;-57
2021/01/10 10:34:56;;;;;;;30.03;16.70;;;;;;;1.80;74.99;99971.28;1770928;80;21162;-58
2021/01/10 10:37:23;;;;;;;24.60;15.27;;;;;;;1.80;74.94;99969.95;1768498;80;21620;-59
2021/01/10 10:39:50;;;;;;;26.57;15.57;;;;;;;1.80;74.96;99964.64;1764044;80;22110;-60
2021/01/10 10:42:18;;;;;;;32.10;18.30;;;;;;;1.81;75.02;99967.73;1774053;80;21468;-59
2021/01/10 10:44:46;;;;;;;28.50;17.07;;;;;;;1.82;74.93;99965.96;1768980;79;21243;-60
2021/01/10 10:47:14;;;;;;;28.17;16.70;;;;;;;1.80;75.03;99963.77;1772159;80;21132;-60
2021/01/10 10:49:42;;;;;;;31.73;18.03;;;;;;;1.80;75.05;99965.97;1757022;80;21134;-59
2021/01/10 10:52:10;;;;;;;29.97;18.30;;;;;;;1.80;75.13;99964.64;1784372;78;21095;-58
2021/01/10 10:54:39;;;;;;;27.60;17.23;;;;;;;1.80;75.15;99960.66;1780356;78;21221;-59
2021/01/10 10:57:09;;;;;;;32.97;19.53;;;;;;;1.81;75.20;99958.89;1750648;79;21508;-61
2021/01/10 10:59:37;;;;;;;27.33;16.73;;;;;;;1.81;75.29;99958.45;1771766;79;21119;-59
2021/01/10 11:02:09;;;;;;;27.07;16.03;;;;;;;1.84;75.22;99954.45;1770552;80;21541;-59
2021/01/10 11:04:45;;;;;;;26.90;16.07;;;;;;;1.87;75.15;99954.39;1772947;80;21112;-59
2021/01/10 11:07:15;;;;;;;26.53;16.40;;;;;;;1.92;75.13;99955.69;1771102;80;21034;-61
2021/01/10 11:09:45;;;;;;;30.87;16.83;;;;;;;1.97;75.11;99959.17;1748488;80;21563;-60
2021/01/10 11:12:13;;;;;;;30.97;18.07;;;;;;;2.02;75.10;99956.03;1769080;80;21111;-59
2021/01/10 11:14:41;;;;;;;27.33;16.63;;;;;;;2.04;74.94;99960.86;1750255;80;21246;-61
2021/01/10 11:17:10;;;;;;;28.87;17.17;;;;;;;2.06;74.88;99960.41;1766440;80;21195;-61
2021/01/10 11:19:38;;;;;;;30.93;18.13;;;;;;;2.06;74.69;99963.05;1765419;79;21376;-59
2021/01/10 11:22:06;;;;;;;27.03;16.63;;;;;;;2.05;74.62;99963.95;1751611;81;21119;-59
2021/01/10 11:24:36;;;;;;;32.40;17.57;;;;;;;2.03;74.63;99966.21;1752888;81;21115;-58
2021/01/10 11:27:03;;;;;;;29.13;16.97;;;;;;;2.00;74.63;99960.47;1753529;79;21104;-57
2021/01/10 11:29:31;;;;;;;24.70;14.30;;;;;;;2.00;74.58;99966.23;1749533;81;21190;-59
2021/01/10 11:31:58;;;;;;;23.70;14.90;;;;;;;2.00;74.63;99961.80;1751243;81;21907;-62
2021/01/10 11:34:25;;;;;;;25.90;15.80;;;;;;;1.98;74.60;99970.22;1754012;81;21206;-59
2021/01/10 11:36:54;;;;;;;24.63;15.13;;;;;;;1.98;74.63;99967.56;1768443;79;21584;-59
2021/01/10 11:39:24;;;;;;;27.27;15.47;;;;;;;1.98;74.72;99971.55;1763215;79;21284;-60
2021/01/10 11:41:54;;;;;;;26.13;15.73;;;;;;;1.99;74.72;99968.00;1767161;79;21101;-63
2021/01/10 11:44:23;;;;;;;28.43;16.03;;;;;;;2.00;74.75;99963.13;1745990;80;21263;-60
2021/01/10 11:46:52;;;;;;;26.87;15.50;;;;;;;1.99;74.65;99975.97;1752207;81;21194;-60